createdAt,value
2023-07-20T00:00:55.443Z,66.33
2023-07-20T00:03:26.479Z,66.31
2023-07-20T00:05:53.855Z,66.16
2023-07-20T00:08:21.210Z,66.34
2023-07-20T00:10:48.650Z,66.98
2023-07-20T00:13:17.231Z,66.29
2023-07-20T00:15:44.473Z,66.21
2023-07-20T00:18:11.831Z,66.33
2023-07-20T00:20:39.130Z,66.68
2023-07-20T00:23:06.946Z,66.44
2023-07-20T00:25:34.641Z,66.36
2023-07-20T00:28:03.198Z,66.03
2023-07-20T00:30:30.506Z,66.52
2023-07-20T00:32:57.854Z,66.27
2023-07-20T00:35:25.116Z,66.82
2023-07-20T00:37:52.399Z,66.86
2023-07-20T00:40:19.629Z,66.95
2023-07-20T00:42:46.884Z,67.88
2023-07-20T00:45:14.130Z,68.07
2023-07-20T00:47:42.064Z,69.04
2023-07-20T00:50:11.217Z,69.44
2023-07-20T00:52:40.645Z,69.66
2023-07-20T00:55:08.895Z,70.10
2023-07-20T00:57:36.529Z,70.58
2023-07-20T01:00:04.251Z,71.18
2023-07-20T01:02:31.617Z,71.59
2023-07-20T01:04:59.273Z,72.05
2023-07-20T01:07:34.210Z,72.17
2023-07-20T01:10:12.093Z,72.09
2023-07-20T01:12:44.387Z,72.42
2023-07-20T01:15:12.147Z,72.97
2023-07-20T01:17:39.598Z,72.56
2023-07-20T01:20:10.209Z,72.97
2023-07-20T01:22:56.662Z,72.74
2023-07-20T01:25:46.192Z,73.06
2023-07-20T01:28:22.452Z,73.08
2023-07-20T01:31:23.551Z,73.46
2023-07-20T01:33:55.112Z,73.64
2023-07-20T01:36:25.976Z,74.20
2023-07-20T01:38:53.944Z,73.88
2023-07-20T01:41:21.762Z,73.85
2023-07-20T01:43:49.125Z,73.91
2023-07-20T01:46:16.857Z,73.74
2023-07-20T01:48:44.463Z,73.56
2023-07-20T01:51:13.409Z,73.62
2023-07-20T01:53:40.830Z,73.52
2023-07-20T01:56:08.112Z,73.16
2023-07-20T01:58:35.643Z,73.17
2023-07-20T02:01:03.262Z,74.03
2023-07-20T02:03:30.613Z,74.10
2023-07-20T02:06:00.689Z,74.18
2023-07-20T02:08:27.871Z,74.28
2023-07-20T02:10:55.099Z,74.66
2023-07-20T02:13:22.374Z,74.83
2023-07-20T02:15:50.632Z,74.26
2023-07-20T02:18:18.054Z,73.91
2023-07-20T02:20:46.122Z,73.84
2023-07-20T02:23:13.470Z,73.89
2023-07-20T02:25:42.155Z,73.58
2023-07-20T02:28:10.767Z,73.13
2023-07-20T02:30:40.490Z,73.22
2023-07-20T02:33:08.918Z,72.62
2023-07-20T02:35:36.374Z,72.14
2023-07-20T02:38:04.533Z,72.14
2023-07-20T02:40:31.846Z,72.77
2023-07-20T02:42:59.143Z,72.77
2023-07-20T02:45:26.345Z,72.93
2023-07-20T02:47:53.625Z,73.03
2023-07-20T02:50:20.952Z,73.45
2023-07-20T02:52:48.230Z,73.62
2023-07-20T02:55:15.991Z,74.37
2023-07-20T02:57:43.450Z,74.62
2023-07-20T03:00:12.798Z,75.12
2023-07-20T03:02:40.178Z,74.88
2023-07-20T03:05:08.579Z,75.15
2023-07-20T03:07:35.879Z,74.79
2023-07-20T03:10:04.311Z,74.51
2023-07-20T03:12:31.587Z,74.60
2023-07-20T03:14:58.809Z,74.84
2023-07-20T03:17:26.128Z,74.98
2023-07-20T03:19:53.712Z,74.87
2023-07-20T03:22:22.735Z,74.48
2023-07-20T03:24:49.966Z,74.42
2023-07-20T03:27:17.242Z,74.94
2023-07-20T03:29:45.417Z,74.86
2023-07-20T03:32:12.704Z,75.16
2023-07-20T03:34:39.982Z,75.30
2023-07-20T03:37:07.810Z,75.67
2023-07-20T03:39:35.043Z,75.28
2023-07-20T03:42:02.385Z,75.31
2023-07-20T03:44:30.590Z,74.91
2023-07-20T03:46:57.964Z,74.76
2023-07-20T03:49:25.237Z,75.12
2023-07-20T03:51:52.488Z,74.68
2023-07-20T03:54:20.338Z,75.22
2023-07-20T03:56:47.608Z,75.31
2023-07-20T03:59:15.508Z,75.05
2023-07-20T04:01:42.821Z,75.06
2023-07-20T04:04:10.247Z,74.90
2023-07-20T04:06:37.537Z,74.73
2023-07-20T04:09:06.322Z,74.47
2023-07-20T04:11:33.912Z,74.29
2023-07-20T04:14:01.208Z,74.10
2023-07-20T04:16:28.604Z,73.85
2023-07-20T04:18:57.518Z,73.85
2023-07-20T04:21:27.061Z,74.05
2023-07-20T04:23:54.363Z,73.98
2023-07-20T04:26:21.869Z,74.10
2023-07-20T04:28:49.973Z,74.22
2023-07-20T04:31:17.524Z,73.79
2023-07-20T04:33:44.758Z,73.47
2023-07-20T04:36:12.108Z,73.77
2023-07-20T04:38:39.396Z,73.74
2023-07-20T04:41:06.617Z,73.50
2023-07-20T04:43:33.879Z,73.37
2023-07-20T04:46:01.201Z,73.59
2023-07-20T04:48:28.487Z,73.47
2023-07-20T04:50:57.023Z,73.47
2023-07-20T04:53:24.700Z,73.60
2023-07-20T04:55:53.320Z,73.88
2023-07-20T04:58:21.851Z,73.84
2023-07-20T05:00:50.202Z,73.52
2023-07-20T05:03:17.635Z,73.49
2023-07-20T05:05:46.932Z,73.23
2023-07-20T05:08:15.600Z,73.46
2023-07-20T05:10:42.892Z,73.69
2023-07-20T05:13:10.156Z,73.30
2023-07-20T05:15:37.439Z,73.03
2023-07-20T05:18:04.809Z,72.80
2023-07-20T05:20:33.085Z,73.14
2023-07-20T05:23:01.238Z,73.05
2023-07-20T05:25:31.042Z,72.80
2023-07-20T05:27:58.874Z,72.61
2023-07-20T05:30:26.398Z,72.30
2023-07-20T05:32:55.800Z,72.43
2023-07-20T05:35:23.766Z,72.19
2023-07-20T05:37:51.097Z,72.32
2023-07-20T05:40:20.693Z,71.78
2023-07-20T05:42:53.467Z,71.59
2023-07-20T05:45:21.428Z,71.59
2023-07-20T05:47:48.764Z,71.66
2023-07-20T05:50:16.198Z,71.46
2023-07-20T05:52:43.462Z,71.07
2023-07-20T05:55:10.729Z,70.29
2023-07-20T05:57:40.953Z,70.16
2023-07-20T06:00:08.742Z,69.61
2023-07-20T06:02:36.113Z,69.72
2023-07-20T06:05:03.397Z,68.83
2023-07-20T06:07:30.679Z,68.71
2023-07-20T06:09:59.548Z,68.17
2023-07-20T06:12:26.934Z,67.92
2023-07-20T06:14:54.280Z,67.88
2023-07-20T06:17:22.219Z,67.52
2023-07-20T06:19:49.509Z,67.32
2023-07-20T06:22:17.100Z,67.18
2023-07-20T06:24:44.430Z,67.20
2023-07-20T06:27:11.816Z,67.35
2023-07-20T06:29:39.791Z,67.25
2023-07-20T06:32:08.019Z,67.21
2023-07-20T06:34:38.107Z,66.92
2023-07-20T06:37:06.084Z,67.17
2023-07-20T06:42:03.587Z,66.63
2023-07-20T06:44:30.844Z,66.74
2023-07-20T06:46:58.090Z,66.61
2023-07-20T06:49:29.125Z,65.76
2023-07-20T06:51:56.545Z,65.86
2023-07-20T06:54:24.369Z,65.88
2023-07-20T06:59:22.743Z,65.16
2023-07-20T07:01:50.055Z,64.97
2023-07-20T07:04:17.486Z,64.37
2023-07-20T07:06:45.683Z,63.64
2023-07-20T07:09:12.983Z,63.76
2023-07-20T07:11:40.334Z,63.47
2023-07-20T07:14:08.676Z,62.54
2023-07-20T07:16:39.452Z,62.60
2023-07-20T07:19:08.671Z,62.11
2023-07-20T07:21:35.962Z,61.86
2023-07-20T07:24:03.257Z,61.23
2023-07-20T07:26:30.503Z,60.82
2023-07-20T07:28:57.758Z,60.75
2023-07-20T07:31:26.801Z,61.06
2023-07-20T07:33:54.070Z,60.08
2023-07-20T07:36:21.654Z,60.29
2023-07-20T07:39:32.393Z,60.36
2023-07-20T07:41:36.653Z,60.12
2023-07-20T07:44:04.010Z,59.07
2023-07-20T07:46:31.279Z,58.30
2023-07-20T07:48:58.607Z,58.38
2023-07-20T07:51:25.978Z,58.06
2023-07-20T07:53:53.479Z,58.11
2023-07-20T07:56:24.713Z,57.46
2023-07-20T07:58:55.290Z,57.37
2023-07-20T08:01:23.755Z,57.21
2023-07-20T08:03:52.308Z,57.22
2023-07-20T08:06:19.560Z,56.71
2023-07-20T08:08:46.761Z,56.50
2023-07-20T08:11:15.942Z,56.59
2023-07-20T08:13:43.367Z,56.91
2023-07-20T08:16:10.844Z,56.60
2023-07-20T08:18:38.235Z,56.37
2023-07-20T08:21:05.588Z,56.37
2023-07-20T08:23:32.838Z,56.05
2023-07-20T08:26:00.315Z,55.77
2023-07-20T08:28:28.099Z,55.75
2023-07-20T08:30:55.355Z,55.63
2023-07-20T08:33:22.649Z,55.87
2023-07-20T08:35:50.259Z,54.89
2023-07-20T08:38:17.517Z,54.45
2023-07-20T08:40:48.015Z,55.04
2023-07-20T08:43:19.844Z,55.16
2023-07-20T08:45:49.056Z,54.57
2023-07-20T08:48:17.150Z,54.41
2023-07-20T08:50:45.150Z,53.57
2023-07-20T08:53:14.592Z,53.26
2023-07-20T08:55:45.582Z,53.00
2023-07-20T08:58:14.074Z,52.36
2023-07-20T09:00:45.448Z,52.06
2023-07-20T09:03:15.863Z,52.05
2023-07-20T09:05:43.275Z,52.04
2023-07-20T09:08:10.504Z,52.16
2023-07-20T09:10:37.775Z,52.43
2023-07-20T09:13:05.005Z,52.17
2023-07-20T09:15:32.369Z,51.67
2023-07-20T09:18:02.986Z,51.37
2023-07-20T09:20:33.641Z,51.83
2023-07-20T09:23:01.488Z,51.83
2023-07-20T09:25:31.506Z,52.31
2023-07-20T09:30:33.401Z,52.43
2023-07-20T09:33:01.557Z,52.38
2023-07-20T09:35:41.690Z,51.31
2023-07-20T09:50:53.388Z,50.35
2023-07-20T09:53:21.502Z,51.25
2023-07-20T09:55:49.589Z,50.79
2023-07-20T09:58:18.140Z,49.97
2023-07-20T10:03:24.381Z,51.24
2023-07-20T10:06:09.994Z,54.93
2023-07-20T10:11:15.639Z,55.98
2023-07-20T10:13:46.032Z,55.93
2023-07-20T10:16:22.884Z,56.06
2023-07-20T10:21:51.450Z,54.15
2023-07-20T10:24:24.366Z,54.41
2023-07-20T10:26:52.288Z,54.70
2023-07-20T10:29:20.640Z,55.63
2023-07-20T10:31:48.095Z,55.77
2023-07-20T10:34:15.875Z,56.04
2023-07-20T10:36:53.149Z,56.32
2023-07-20T10:39:29.184Z,56.35
2023-07-20T10:42:09.619Z,56.32
2023-07-20T10:44:41.029Z,55.29
2023-07-20T10:47:13.677Z,54.53
2023-07-20T10:50:01.801Z,53.27
2023-07-20T10:52:39.541Z,52.53
2023-07-20T10:55:17.510Z,52.44
2023-07-20T10:57:46.047Z,52.57
2023-07-20T11:00:15.841Z,52.40
2023-07-20T11:03:00.683Z,52.70
2023-07-20T11:05:40.359Z,53.07
2023-07-20T11:08:11.906Z,52.93
2023-07-20T11:10:40.284Z,53.73
2023-07-20T11:13:21.459Z,54.09
2023-07-20T11:15:58.305Z,53.84
2023-07-20T11:18:29.480Z,53.39
2023-07-20T11:20:57.001Z,53.10
2023-07-20T11:23:24.558Z,53.10
2023-07-20T11:25:51.948Z,51.66
2023-07-20T11:28:19.197Z,51.19
2023-07-20T11:30:46.498Z,50.64
2023-07-20T11:33:13.755Z,50.90
2023-07-20T11:35:45.220Z,51.12
2023-07-20T11:38:14.390Z,51.11
2023-07-20T11:40:48.077Z,51.90
2023-07-20T11:45:46.877Z,53.12
2023-07-20T11:48:17.938Z,53.88
2023-07-20T11:50:45.638Z,53.90
2023-07-20T11:53:13.459Z,53.09
2023-07-20T11:55:42.460Z,52.78
2023-07-20T11:58:10.932Z,53.20
2023-07-20T12:00:41.382Z,52.20
2023-07-20T12:03:09.066Z,52.54
2023-07-20T12:05:47.643Z,52.42
2023-07-20T12:08:23.214Z,51.43
2023-07-20T12:10:51.241Z,49.36
2023-07-20T12:13:18.487Z,48.41
2023-07-20T12:15:45.735Z,48.65
2023-07-20T12:18:13.156Z,48.43
2023-07-20T12:20:41.114Z,48.83
2023-07-20T12:23:13.442Z,48.47
2023-07-20T12:25:47.621Z,48.28
2023-07-20T12:28:20.379Z,48.61
2023-07-20T12:30:57.684Z,48.77
2023-07-20T12:33:25.486Z,49.65
2023-07-20T12:35:57.034Z,50.20
2023-07-20T12:38:24.530Z,50.41
2023-07-20T12:40:52.208Z,49.89
2023-07-20T12:43:19.457Z,50.50
2023-07-20T12:45:46.822Z,50.29
2023-07-20T12:48:14.248Z,50.08
2023-07-20T12:50:41.548Z,49.44
2023-07-20T12:53:08.972Z,49.22
2023-07-20T12:55:36.370Z,47.95
2023-07-20T12:58:03.664Z,47.81
2023-07-20T13:00:31.114Z,48.04
2023-07-20T13:10:32.278Z,47.58
2023-07-20T13:13:02.448Z,47.36
2023-07-20T13:15:34.191Z,46.67
2023-07-20T13:18:01.634Z,46.54
2023-07-20T13:20:29.527Z,47.17
2023-07-20T13:22:56.897Z,47.46
2023-07-20T13:25:24.309Z,47.35
2023-07-20T13:27:51.693Z,46.63
2023-07-20T13:30:19.137Z,46.00
2023-07-20T13:32:46.660Z,45.68
2023-07-20T13:35:14.126Z,45.75
2023-07-20T13:37:42.698Z,46.96
2023-07-20T13:40:14.662Z,47.29
2023-07-20T13:42:42.133Z,47.67
2023-07-20T13:45:09.864Z,47.14
2023-07-20T13:47:37.747Z,47.59
2023-07-20T13:50:06.014Z,46.85
2023-07-20T13:55:05.691Z,47.27
2023-07-20T13:57:35.438Z,46.22
2023-07-20T14:00:06.920Z,45.63
2023-07-20T14:07:38.670Z,47.49
2023-07-20T14:12:36.855Z,48.22
2023-07-20T14:15:06.081Z,48.02
2023-07-20T14:17:33.529Z,48.94
2023-07-20T14:20:00.966Z,48.91
2023-07-20T14:22:28.218Z,48.84
2023-07-20T14:24:55.897Z,47.98
2023-07-20T14:27:23.335Z,46.92
2023-07-20T14:29:50.602Z,47.20
2023-07-20T14:32:17.832Z,47.10
2023-07-20T14:34:47.921Z,47.09
2023-07-20T14:37:15.169Z,47.16
2023-07-20T14:39:42.511Z,47.49
2023-07-20T14:42:09.868Z,47.95
2023-07-20T14:44:38.152Z,48.39
2023-07-20T14:47:14.282Z,48.72
2023-07-20T14:49:43.306Z,48.49
2023-07-20T14:54:41.475Z,49.56
2023-07-20T14:57:15.717Z,49.51
2023-07-20T14:59:43.585Z,49.36
2023-07-20T15:02:10.956Z,49.00
2023-07-20T15:04:38.315Z,49.60
2023-07-20T15:07:06.078Z,50.04
2023-07-20T15:09:35.156Z,49.96
2023-07-20T15:12:02.515Z,49.49
2023-07-20T15:14:29.894Z,49.47
2023-07-20T15:16:57.129Z,50.11
2023-07-20T15:19:24.384Z,51.22
2023-07-20T15:21:51.740Z,52.01
2023-07-20T15:24:19.190Z,51.27
2023-07-20T15:26:46.560Z,50.72
2023-07-20T15:34:15.484Z,51.28
2023-07-20T15:36:42.862Z,51.77
2023-07-20T15:39:10.413Z,51.32
2023-07-20T15:41:37.685Z,51.84
2023-07-20T15:44:05.058Z,51.16
2023-07-20T15:46:41.581Z,51.32
2023-07-20T15:49:09.354Z,51.47
2023-07-20T15:51:43.413Z,50.96
2023-07-20T15:54:11.856Z,51.28
2023-07-20T15:56:40.511Z,51.18
2023-07-20T15:59:12.906Z,51.28
2023-07-20T16:01:41.519Z,51.64
2023-07-20T16:04:09.580Z,50.89
2023-07-20T16:06:37.358Z,51.90
2023-07-20T16:09:07.758Z,51.66
2023-07-20T16:11:37.742Z,51.77
2023-07-20T16:14:07.824Z,52.46
2023-07-20T16:16:36.524Z,52.68
2023-07-20T16:19:04.567Z,54.23
2023-07-20T16:21:33.727Z,56.86
2023-07-20T16:24:01.782Z,59.61
2023-07-20T16:26:29.636Z,61.02
2023-07-20T16:31:27.498Z,61.73
2023-07-20T16:34:05.917Z,62.78
2023-07-20T16:44:06.957Z,65.55
2023-07-20T16:49:10.430Z,66.21
2023-07-20T16:51:37.817Z,66.76
2023-07-20T16:54:08.795Z,66.66
2023-07-20T16:56:36.148Z,66.54
2023-07-20T16:59:03.569Z,66.21
2023-07-20T17:01:30.921Z,66.18
2023-07-20T17:03:58.261Z,66.98
2023-07-20T17:06:25.665Z,67.54
2023-07-20T17:08:52.974Z,68.28
2023-07-20T17:11:20.690Z,68.40
2023-07-20T17:13:47.989Z,68.92
2023-07-20T17:16:15.303Z,68.78
2023-07-20T17:18:42.765Z,69.28
2023-07-20T17:21:10.028Z,69.85
2023-07-20T17:31:08.406Z,71.08
2023-07-20T17:33:35.975Z,70.11
2023-07-20T17:41:04.267Z,69.88
2023-07-20T17:43:32.974Z,70.67
2023-07-20T17:48:30.536Z,70.59
2023-07-20T17:50:58.019Z,70.16
2023-07-20T17:53:27.037Z,70.51
2023-07-20T17:55:54.310Z,70.95
2023-07-20T17:58:25.000Z,71.26
2023-07-20T18:00:54.055Z,71.32
2023-07-20T18:03:21.362Z,71.54
2023-07-20T18:05:48.623Z,71.52
2023-07-20T18:08:16.000Z,71.57
2023-07-20T18:10:43.268Z,71.22
2023-07-20T18:13:10.501Z,70.95
2023-07-20T18:15:37.760Z,70.82
2023-07-20T18:18:05.057Z,70.22
2023-07-20T18:20:34.220Z,70.20
2023-07-20T18:23:04.786Z,70.00
2023-07-20T18:25:32.325Z,69.87
2023-07-20T18:27:59.546Z,69.80
2023-07-20T18:30:34.218Z,70.53
2023-07-20T18:33:02.678Z,71.17
2023-07-20T18:35:31.193Z,71.36
2023-07-20T18:37:58.618Z,71.88
2023-07-20T18:40:27.056Z,72.58
2023-07-20T18:42:55.145Z,72.55
2023-07-20T18:45:22.572Z,72.56
2023-07-20T18:47:50.073Z,71.95
2023-07-20T18:50:17.697Z,71.76
2023-07-20T18:52:45.482Z,71.46
2023-07-20T18:55:12.953Z,72.06
2023-07-20T18:57:42.066Z,72.54
2023-07-20T19:00:11.296Z,72.58
2023-07-20T19:02:38.785Z,72.41
2023-07-20T19:05:06.606Z,72.71
2023-07-20T19:07:34.185Z,72.89
2023-07-20T19:10:02.924Z,73.59
2023-07-20T19:12:30.351Z,73.87
2023-07-20T19:14:57.693Z,74.12
2023-07-20T19:17:27.843Z,73.52
2023-07-20T19:19:55.109Z,72.93
2023-07-20T19:22:22.527Z,73.55
2023-07-20T19:24:50.003Z,73.73
2023-07-20T19:27:17.487Z,73.82
2023-07-20T19:29:44.850Z,74.34
2023-07-20T19:32:12.130Z,74.44
2023-07-20T19:34:39.386Z,74.05
2023-07-20T19:37:07.054Z,74.10
2023-07-20T19:39:34.344Z,74.14
2023-07-20T19:42:01.854Z,74.29
2023-07-20T19:44:30.743Z,74.09
2023-07-20T19:46:58.480Z,73.89
2023-07-20T19:49:28.599Z,74.01
2023-07-20T19:51:56.434Z,74.17
2023-07-20T19:56:55.290Z,74.79
2023-07-20T19:59:22.607Z,75.47
2023-07-20T20:01:49.896Z,75.00
2023-07-20T20:06:51.295Z,75.53
2023-07-20T20:09:18.757Z,75.25
2023-07-20T20:11:48.158Z,75.03
2023-07-20T20:14:16.828Z,75.89
2023-07-20T20:16:45.563Z,75.66
2023-07-20T20:19:14.093Z,75.51
2023-07-20T20:21:41.431Z,75.59
2023-07-20T20:24:08.879Z,76.04
2023-07-20T20:26:39.386Z,75.91
2023-07-20T20:29:07.332Z,75.71
2023-07-20T20:31:34.761Z,75.66
2023-07-20T20:34:02.292Z,75.56
2023-07-20T20:36:29.609Z,76.56
2023-07-20T20:38:56.850Z,76.96
2023-07-20T20:41:24.104Z,76.32
2023-07-20T20:43:51.359Z,76.18
2023-07-20T20:46:21.861Z,75.93
2023-07-20T20:48:49.416Z,76.10
2023-07-20T20:51:16.901Z,75.98
2023-07-20T20:53:44.843Z,75.97
2023-07-20T20:56:12.075Z,75.53
2023-07-20T20:58:39.371Z,75.72
2023-07-20T21:01:07.244Z,75.66
2023-07-20T21:03:34.712Z,75.84
2023-07-20T21:06:02.112Z,75.45
2023-07-20T21:08:29.604Z,75.07
2023-07-20T21:11:00.234Z,74.79
2023-07-20T21:13:27.689Z,75.27
2023-07-20T21:15:56.110Z,75.54
2023-07-20T21:18:23.463Z,75.43
2023-07-20T21:20:51.157Z,75.49
2023-07-20T21:23:22.050Z,76.17
2023-07-20T21:25:49.945Z,76.23
2023-07-20T21:28:18.497Z,75.44
2023-07-20T21:30:47.835Z,74.95
2023-07-20T21:33:15.535Z,75.24
2023-07-20T21:35:42.993Z,74.73
2023-07-20T21:38:10.389Z,74.78
2023-07-20T21:40:39.364Z,75.05
2023-07-20T21:43:06.603Z,75.05
2023-07-20T21:45:33.951Z,75.69
2023-07-20T21:48:01.201Z,75.91
2023-07-20T21:50:28.816Z,75.44
2023-07-20T21:52:56.189Z,76.09
2023-07-20T21:55:23.837Z,76.69
2023-07-20T21:57:51.560Z,76.20
2023-07-20T22:00:24.894Z,75.66
2023-07-20T22:02:52.606Z,75.93
2023-07-20T22:05:22.706Z,75.77
2023-07-20T22:07:50.334Z,76.14
2023-07-20T22:10:18.367Z,76.24
2023-07-20T22:12:45.571Z,75.89
2023-07-20T22:15:14.126Z,75.68
2023-07-20T22:17:41.482Z,76.64
2023-07-20T22:20:14.625Z,77.03
2023-07-20T22:22:42.235Z,76.26
2023-07-20T22:25:10.131Z,75.58
2023-07-20T22:27:38.468Z,75.75
2023-07-20T22:30:06.398Z,75.29
2023-07-20T22:32:33.654Z,76.84
2023-07-20T22:35:00.942Z,77.24
2023-07-20T22:37:28.597Z,76.54
2023-07-20T22:39:56.068Z,75.85
2023-07-20T22:42:23.368Z,75.52
2023-07-20T22:44:55.485Z,74.94
2023-07-20T22:47:22.757Z,74.90
2023-07-20T22:49:49.992Z,75.02
2023-07-20T22:52:17.989Z,75.14
2023-07-20T22:54:46.003Z,75.04
2023-07-20T22:57:13.295Z,75.30
2023-07-20T22:59:40.561Z,75.25
2023-07-20T23:02:09.803Z,75.76
2023-07-20T23:04:37.345Z,76.29
2023-07-20T23:07:05.344Z,75.55
2023-07-20T23:09:32.540Z,76.00
2023-07-20T23:12:02.305Z,76.87
2023-07-20T23:14:29.990Z,76.88
2023-07-20T23:16:57.543Z,76.90
2023-07-20T23:19:25.427Z,76.13
2023-07-20T23:21:52.699Z,76.04
2023-07-20T23:24:19.975Z,75.22
2023-07-20T23:26:47.367Z,75.55
2023-07-20T23:29:14.619Z,76.00
2023-07-20T23:31:41.977Z,76.33
2023-07-20T23:34:09.387Z,76.43
2023-07-20T23:36:36.643Z,75.98
2023-07-20T23:39:04.483Z,75.67
2023-07-20T23:41:31.764Z,75.92
2023-07-20T23:43:59.030Z,75.63
2023-07-20T23:46:29.541Z,75.74
2023-07-20T23:48:57.364Z,75.98
2023-07-20T23:51:25.155Z,75.88
2023-07-20T23:53:52.468Z,75.85
2023-07-20T23:56:23.596Z,75.61
2023-07-20T23:58:51.376Z,75.84
